Pocatello, ID

3:36 PM MDT on October 23, 2014 (GMT -0600)
University Area | Change Station
CLOSE
Current Station
Personal Weather Station
Location: Pocatello, ID
Elevation: 4659 ft
Nearby Weather Stations

Elev 4659 ft 42.86 °N, 112.42 °W | Updated 3 seconds ago

Mostly Cloudy
Mostly Cloudy
70.7 °F
Feels Like 75 °F
N
3.1
Wind Variable Wind from SE
Gusts 6.9 mph

Today
High -- | Low -- °F
--% Chance of Precip.
Yesterday
High -- | Low -- °F
Precip. -- in
7:52 AM 6:34 PM
Waning Crescent, 0% visible
Pressure 30.01 in
Visibility 10.0 miles
Clouds Mostly Cloudy 12000 ft
Heat Index 75 °F
Dew Point 32 °F
Humidity 24%
Rainfall 0.00 in
Snow Depth 1 in
UV 2 out of 12
Pollen 3.00 out of 12
PM2.5 Good
Flu Activity Sporadic
METAR KPIH 232053Z 25012KT 10SM BKN120 17/M01 A3009 RMK AO2 SLP162 T01721011 58013

More Conditions Fewer Conditions

Pressure 30.01 in
Visibility 10.0 miles
Clouds Mostly Cloudy 12000 ft
Heat Index 75 °F
Dew Point 32 °F
Humidity 24%
Rainfall 0.00 in
Snow Depth 1 in
UV 2 out of 12
Pollen 3.00 out of 12
PM2.5 Good
Flu Activity Sporadic
METAR KPIH 232053Z 25012KT 10SM BKN120 17/M01 A3009 RMK AO2 SLP162 T01721011 58013

More Conditions Fewer Conditions

10-Day Weather Forecast

Almanac

Astronomy

Oct. 23, 2014 Rise Set
Actual Time 7:52 AM MDT 6:34 PM MDT
Civil Twilight 7:23 AM MDT 7:03 PM MDT
Nautical Twilight 6:50 AM MDT 7:36 PM MDT
Astronomical Twilight 6:18 AM MDT 8:09 PM MDT
Moon 7:35 AM MDT 6:38 PM MDT
Length of Visible Light 11h 39m
Length of Day
10h 41m
Tomorrow will be 2m 44s shorter.
Waning Crescent, 0% of the Moon is Illuminated
Today
Waning Crescent
Oct 23
New
Oct 30
First Quarter
Nov 6
Full
Nov 14
Last Quarter

Today's Extremes

State Highs State Lows

Community

WunderPhotos

Upload Photos

1,764,379 photos uploaded!

WunderBlogs® & News

Nearby

Air Quality

  Air Quality AQ Index Pollutant
Yesterday Good
PM2.5
Current Good
PM2.5
Thursday Good
PM2.5
Friday Good
PM2.5
Saturday Good
PM2.5

Snow Depth

Station Depth Elevation
Wildhorse Divide 1 in 6490 ft
Sheep Mountain 0 in 6570 ft
Somsen Ranch 0 in 6800 ft
Emigrant Summit 0 in 7390 ft
Slug Creek Divide 0 in 7225 ft

Earthquake Activity

City Distance Mag. Time & Date
No recent earthquake activity has been reported nearby.
Minimum magnitude displayed is 2.5.

Coastal Water Temperatures

Place Temperature
No Stations Reporting

Nearby Weather Stations